DEKT2: Red River, Dekalb, TX

Data processed at Sat Aug 19 2017 21:32


All information presented herein is the property of the government of the United States of America and may be revised or deleted at any time without prior notice.
Dissemination of this information without the expressed written consent of the Public Affairs Office, Tulsa District U.S. Army Corps of Engineers is strictly prohibited.
These data are gathered electronically and, as presented, have not undergone any form of quality control. These data are not guaranteed to be valid or correct.
Go to home page.
Go to station list.

Upstream stations:

Downstream station:
Previous Day
Next Day
Current Day
    
SHEF ID:       DEKT2     Red River near De Kalb, TX
STATION TYPE:  

               PRECIP     STAGE  STAGE(2)  RIV-FLOW  BAT-LOAD
                   in        ft        ft       cfs      volt
              Ccp-Rev   Ccp-Rev   Ccp-Rev   Ccp-Rev   Ccp-Rev
(US/Central)
08/19 00:00      0.00     15.69     17.78     19104     12.73
08/19 01:00      0.00     15.68     17.77     19069     12.65
08/19 02:00      0.00     15.68     17.76     19069     12.65
08/19 03:00      0.00     15.68     17.73     19069     12.65
08/19 04:00      0.00     15.68     17.71     19069     12.65
08/19 05:00      0.01     15.70     17.70     19140     12.65
08/19 06:00      0.00     15.71     17.69     19175     12.65
08/19 07:00      0.00     15.74     17.68     19282     12.65
08/19 08:00      0.00     15.77     17.98     19390     12.65
08/19 09:00      0.00     15.81     18.32     19533     12.81
08/19 10:00      0.00     15.83     18.30     19605     13.37
08/19 11:00      0.00     15.89     18.29     19822     13.68
08/19 12:00      0.00     15.93     18.32     19967     13.05
08/19 13:00      0.00     15.97     18.17     20113     12.97
08/19 14:00      0.00     16.00     18.00     20222     12.97
08/19 15:00      0.00     16.06     18.04     20442     12.97
08/19 16:00      0.01     16.11     18.08     20626     12.97
08/19 17:00      0.00     16.16     18.12     20811     12.97
08/19 18:00      0.00     16.23     18.12     21072     12.97
08/19 19:00      0.00     16.29     18.10     21296     12.97
08/19 20:00      0.00     16.34     17.97     21484     12.81
08/19 21:00      0.00     16.40     17.97     21711     12.73
08/19 22:00      ----      ----      ----      ----      ----
08/19 23:00      ----      ----      ----      ----      ----